createdAt,value
2018-12-22T00:01:48.442Z,7.03
2018-12-22T00:04:15.976Z,8.23
2018-12-22T00:06:43.475Z,7.67
2018-12-22T00:09:10.905Z,6.90
2018-12-22T00:11:38.550Z,7.13
2018-12-22T00:14:05.979Z,7.03
2018-12-22T00:16:33.417Z,8.07
2018-12-22T00:19:01.114Z,6.57
2018-12-22T00:21:28.787Z,6.67
2018-12-22T00:23:56.536Z,6.87
2018-12-22T00:26:24.215Z,6.33
2018-12-22T00:28:51.846Z,6.93
2018-12-22T00:31:19.376Z,6.27
2018-12-22T00:33:46.764Z,6.57
2018-12-22T00:36:16.058Z,5.80
2018-12-22T00:38:43.621Z,6.30
2018-12-22T00:41:11.079Z,6.20
2018-12-22T00:43:38.545Z,6.00
2018-12-22T00:49:12.937Z,6.47
2018-12-22T00:51:40.520Z,5.87
2018-12-22T00:54:08.008Z,6.30
2018-12-22T00:56:35.487Z,6.20
2018-12-22T00:59:02.919Z,6.80
2018-12-22T01:01:30.374Z,8.00
2018-12-22T01:03:58.843Z,6.90
2018-12-22T01:06:26.362Z,6.93
2018-12-22T01:08:54.066Z,6.50
2018-12-22T01:11:21.585Z,6.83
2018-12-22T01:13:49.141Z,6.70
2018-12-22T01:16:17.565Z,6.80
2018-12-22T01:18:45.167Z,6.50
2018-12-22T01:21:12.676Z,6.87
2018-12-22T01:23:40.362Z,6.47
2018-12-22T01:26:08.203Z,6.67
2018-12-22T01:28:39.460Z,6.73
2018-12-22T01:31:05.298Z,6.97
2018-12-22T01:33:32.900Z,6.20
2018-12-22T01:36:00.473Z,6.60
2018-12-22T01:38:27.914Z,6.70
2018-12-22T01:40:56.601Z,6.00
2018-12-22T01:43:25.109Z,7.43
2018-12-22T01:45:52.759Z,6.27
2018-12-22T01:48:20.418Z,6.30
2018-12-22T01:50:47.882Z,5.70
2018-12-22T01:53:15.449Z,5.53
2018-12-22T01:55:42.931Z,5.87
2018-12-22T01:58:10.491Z,5.20
2018-12-22T02:00:38.499Z,6.07
2018-12-22T02:03:06.023Z,7.37
2018-12-22T02:05:33.518Z,7.03
2018-12-22T02:08:00.989Z,6.20
2018-12-22T02:10:28.416Z,5.47
2018-12-22T02:12:55.948Z,5.87
2018-12-22T02:15:23.426Z,3.80
2018-12-22T02:17:51.315Z,3.37
2018-12-22T02:20:18.986Z,3.27
2018-12-22T02:22:47.187Z,2.90
2018-12-22T02:25:14.658Z,3.80
2018-12-22T02:27:42.201Z,4.33
2018-12-22T02:30:09.769Z,3.70
2018-12-22T02:32:37.756Z,4.63
2018-12-22T02:35:05.792Z,4.03
2018-12-22T02:37:33.255Z,4.27
2018-12-22T02:40:00.902Z,5.27
2018-12-22T02:42:28.419Z,5.80
2018-12-22T02:44:56.054Z,4.97
2018-12-22T02:47:24.454Z,4.67
2018-12-22T02:49:52.429Z,5.23
2018-12-22T02:52:19.909Z,5.50
2018-12-22T02:54:47.448Z,6.80
2018-12-22T02:57:14.868Z,6.50
2018-12-22T02:59:42.381Z,6.53
2018-12-22T03:02:10.145Z,6.03
2018-12-22T03:04:37.602Z,5.83
2018-12-22T03:07:05.169Z,6.47
2018-12-22T03:09:32.644Z,6.67
2018-12-22T03:12:01.148Z,6.77
2018-12-22T03:14:28.587Z,4.83
2018-12-22T03:16:56.034Z,4.93
2018-12-22T03:19:28.076Z,4.83
2018-12-22T03:21:55.533Z,6.10
2018-12-22T03:24:22.988Z,4.70
2018-12-22T03:26:50.412Z,3.07
2018-12-22T03:29:17.834Z,3.67
2018-12-22T03:31:45.271Z,3.63
2018-12-22T03:34:12.834Z,3.83
2018-12-22T03:36:40.517Z,4.27
2018-12-22T03:39:08.157Z,3.97
2018-12-22T03:41:35.670Z,3.30
2018-12-22T03:44:03.097Z,3.50
2018-12-22T03:46:31.208Z,3.50
2018-12-22T03:48:58.740Z,2.70
2018-12-22T03:51:26.193Z,2.77
2018-12-22T03:53:53.692Z,2.87
2018-12-22T03:56:22.188Z,2.33
2018-12-22T03:58:49.694Z,2.20
2018-12-22T04:01:17.184Z,2.07
2018-12-22T04:03:44.634Z,2.80
2018-12-22T04:06:12.149Z,1.97
2018-12-22T04:08:39.663Z,2.60
2018-12-22T04:11:07.350Z,2.57
2018-12-22T04:13:34.782Z,3.00
2018-12-22T04:16:02.245Z,2.93
2018-12-22T04:18:29.802Z,2.57
2018-12-22T04:20:57.532Z,2.77
2018-12-22T04:23:25.727Z,2.70
2018-12-22T04:25:53.685Z,2.00
2018-12-22T04:28:21.143Z,2.27
2018-12-22T04:30:48.724Z,2.77
2018-12-22T04:33:16.318Z,2.27
2018-12-22T04:35:44.714Z,2.47
2018-12-22T04:38:12.222Z,2.00
2018-12-22T04:40:40.506Z,2.30
2018-12-22T04:43:07.935Z,2.70
2018-12-22T04:45:36.067Z,2.00
2018-12-22T04:48:06.308Z,1.73
2018-12-22T04:50:37.871Z,2.50
2018-12-22T04:53:05.434Z,1.90
2018-12-22T04:55:33.105Z,2.80
2018-12-22T04:58:00.653Z,2.57
2018-12-22T05:00:28.837Z,1.90
2018-12-22T05:02:56.319Z,2.30
2018-12-22T05:05:23.854Z,1.77
2018-12-22T05:07:51.355Z,2.03
2018-12-22T05:10:18.814Z,2.00
2018-12-22T05:12:46.348Z,2.00
2018-12-22T05:15:13.828Z,2.13
2018-12-22T05:17:41.371Z,2.07
2018-12-22T05:20:11.414Z,1.70
2018-12-22T05:22:38.927Z,2.33
2018-12-22T05:25:06.566Z,2.00
2018-12-22T05:27:34.109Z,1.80
2018-12-22T05:30:01.570Z,2.50
2018-12-22T05:32:29.005Z,1.60
2018-12-22T05:34:56.436Z,2.17
2018-12-22T05:37:23.982Z,1.97
2018-12-22T05:39:51.499Z,2.60
2018-12-22T05:42:18.959Z,1.93
2018-12-22T05:44:47.441Z,2.17
2018-12-22T05:47:14.847Z,2.37
2018-12-22T05:49:42.347Z,3.13
2018-12-22T05:52:10.057Z,2.27
2018-12-22T05:54:37.632Z,2.30
2018-12-22T05:57:05.105Z,2.37
2018-12-22T05:59:32.690Z,2.30
2018-12-22T06:02:00.107Z,2.93
2018-12-22T06:04:27.678Z,2.50
2018-12-22T06:06:55.149Z,3.57
2018-12-22T06:09:22.687Z,2.83
2018-12-22T06:11:50.117Z,2.67
2018-12-22T06:14:21.705Z,1.90
2018-12-22T06:16:49.292Z,2.57
2018-12-22T06:19:16.682Z,3.10
2018-12-22T06:21:44.100Z,2.67
2018-12-22T06:24:11.567Z,3.10
2018-12-22T06:26:39.127Z,2.57
2018-12-22T06:29:06.619Z,2.50
2018-12-22T06:31:38.104Z,2.33
2018-12-22T06:34:05.543Z,2.30
2018-12-22T06:36:32.966Z,2.07
2018-12-22T06:39:05.063Z,2.13
2018-12-22T06:41:33.042Z,2.00
2018-12-22T06:44:01.059Z,1.97
2018-12-22T06:46:28.543Z,2.33
2018-12-22T06:48:55.956Z,2.70
2018-12-22T06:51:23.420Z,2.80
2018-12-22T06:53:51.119Z,2.53
2018-12-22T06:56:18.671Z,2.80
2018-12-22T06:58:46.334Z,2.03
2018-12-22T07:01:18.174Z,1.93
2018-12-22T07:03:46.090Z,2.33
2018-12-22T07:06:14.157Z,2.37
2018-12-22T07:08:41.686Z,2.23
2018-12-22T07:11:09.189Z,2.07
2018-12-22T07:13:36.666Z,2.90
2018-12-22T07:16:04.162Z,3.30
2018-12-22T07:18:31.667Z,2.30
2018-12-22T07:20:59.160Z,1.80
2018-12-22T07:23:27.246Z,2.30
2018-12-22T07:25:54.749Z,2.50
2018-12-22T07:28:22.418Z,2.20
2018-12-22T07:30:49.972Z,2.57
2018-12-22T07:33:17.389Z,1.97
2018-12-22T07:35:44.963Z,2.20
2018-12-22T07:38:12.410Z,2.03
2018-12-22T07:40:39.954Z,2.37
2018-12-22T07:43:07.463Z,1.57
2018-12-22T07:45:34.931Z,2.20
2018-12-22T07:48:02.424Z,2.60
2018-12-22T07:50:29.912Z,2.50
2018-12-22T07:52:57.552Z,1.77
2018-12-22T07:55:25.007Z,2.20
2018-12-22T07:57:52.950Z,2.20
2018-12-22T08:00:25.003Z,2.70
2018-12-22T08:02:52.389Z,2.40
2018-12-22T08:05:19.865Z,2.37
2018-12-22T08:07:47.323Z,2.37
2018-12-22T08:10:14.762Z,2.43
2018-12-22T08:12:42.245Z,2.57
2018-12-22T08:15:09.666Z,2.27
2018-12-22T08:17:37.104Z,2.53
2018-12-22T08:20:05.097Z,2.37
2018-12-22T08:22:32.556Z,2.60
2018-12-22T08:25:00.034Z,2.07
2018-12-22T08:27:27.655Z,1.87
2018-12-22T08:29:55.059Z,2.53
2018-12-22T08:32:23.387Z,2.13
2018-12-22T08:34:50.883Z,2.03
2018-12-22T08:37:18.382Z,2.40
2018-12-22T08:39:45.793Z,2.33
2018-12-22T08:42:13.827Z,2.40
2018-12-22T08:44:42.862Z,2.23
2018-12-22T08:47:10.575Z,2.10
2018-12-22T08:49:38.015Z,2.20
2018-12-22T08:52:05.410Z,2.30
2018-12-22T08:54:32.992Z,2.10
2018-12-22T08:57:00.399Z,2.53
2018-12-22T08:59:27.902Z,2.33
2018-12-22T09:01:55.465Z,1.73
2018-12-22T09:04:22.945Z,2.10
2018-12-22T09:06:50.367Z,1.77
2018-12-22T09:09:17.929Z,2.33
2018-12-22T09:11:45.522Z,1.60
2018-12-22T09:14:12.946Z,2.07
2018-12-22T09:16:40.388Z,2.50
2018-12-22T09:19:07.892Z,2.27
2018-12-22T09:21:35.528Z,1.97
2018-12-22T09:24:02.984Z,1.90
2018-12-22T09:26:30.458Z,1.90
2018-12-22T09:28:58.031Z,2.40
2018-12-22T09:31:25.553Z,1.97
2018-12-22T09:33:53.032Z,2.73
2018-12-22T09:36:21.232Z,1.87
2018-12-22T09:38:48.668Z,2.20
2018-12-22T09:41:17.043Z,2.00
2018-12-22T09:43:45.136Z,2.23
2018-12-22T09:46:12.641Z,2.20
2018-12-22T09:48:40.093Z,2.47
2018-12-22T09:51:07.596Z,2.13
2018-12-22T09:53:35.043Z,2.10
2018-12-22T09:56:03.229Z,2.67
2018-12-22T09:58:30.772Z,2.70
2018-12-22T10:00:58.239Z,2.23
2018-12-22T10:03:25.670Z,2.63
2018-12-22T10:05:53.346Z,2.17
2018-12-22T10:08:20.921Z,2.03
2018-12-22T10:10:48.404Z,2.20
2018-12-22T10:13:15.884Z,2.03
2018-12-22T10:15:43.314Z,2.47
2018-12-22T10:18:10.807Z,2.37
2018-12-22T10:20:38.288Z,2.20
2018-12-22T10:23:05.832Z,2.67
2018-12-22T10:25:33.407Z,2.33
2018-12-22T10:28:00.912Z,2.60
2018-12-22T10:30:28.329Z,2.00
2018-12-22T10:32:55.839Z,2.30
2018-12-22T10:35:26.459Z,2.80
2018-12-22T10:37:53.905Z,2.10
2018-12-22T10:40:21.293Z,2.33
2018-12-22T10:42:48.756Z,2.30
2018-12-22T10:45:16.177Z,1.90
2018-12-22T10:47:43.682Z,2.30
2018-12-22T10:50:14.956Z,2.13
2018-12-22T10:52:42.435Z,2.03
2018-12-22T10:55:10.733Z,2.43
2018-12-22T10:57:38.767Z,1.80
2018-12-22T11:00:08.092Z,1.60
2018-12-22T11:02:35.552Z,2.00
2018-12-22T11:05:03.033Z,1.77
2018-12-22T11:07:30.544Z,1.30
2018-12-22T11:09:58.074Z,2.27
2018-12-22T11:12:25.558Z,2.40
2018-12-22T11:14:53.034Z,2.53
2018-12-22T11:17:20.490Z,2.20
2018-12-22T11:19:49.071Z,2.47
2018-12-22T11:22:16.577Z,1.93
2018-12-22T11:24:44.802Z,2.30
2018-12-22T11:27:12.320Z,2.73
2018-12-22T11:29:39.970Z,2.37
2018-12-22T11:32:07.384Z,2.60
2018-12-22T11:34:34.852Z,2.73
2018-12-22T11:37:02.403Z,2.43
2018-12-22T11:39:29.917Z,2.63
2018-12-22T11:41:57.539Z,2.23
2018-12-22T11:44:25.961Z,2.67
2018-12-22T11:46:54.303Z,2.53
2018-12-22T11:49:38.082Z,3.07
2018-12-22T11:52:05.729Z,2.50
2018-12-22T11:54:33.152Z,2.70
2018-12-22T11:57:00.718Z,2.80
2018-12-22T11:59:28.190Z,2.60
2018-12-22T12:01:55.622Z,2.30
2018-12-22T12:04:23.051Z,2.40
2018-12-22T12:06:50.591Z,2.80
2018-12-22T12:09:18.075Z,2.57
2018-12-22T12:11:45.560Z,2.40
2018-12-22T12:14:13.136Z,2.50
2018-12-22T12:16:46.539Z,2.50
2018-12-22T12:19:16.113Z,2.90
2018-12-22T12:21:43.562Z,2.30
2018-12-22T12:24:11.037Z,2.83
2018-12-22T12:26:38.610Z,2.60
2018-12-22T12:29:06.040Z,2.53
2018-12-22T12:31:34.134Z,2.87
2018-12-22T12:34:02.319Z,2.23
2018-12-22T12:36:29.781Z,2.67
2018-12-22T12:38:57.403Z,3.03
2018-12-22T12:41:26.487Z,2.87
2018-12-22T12:43:54.136Z,2.67
2018-12-22T12:46:22.451Z,2.40
2018-12-22T12:48:50.722Z,2.07
2018-12-22T12:51:18.241Z,2.87
2018-12-22T12:53:46.898Z,2.97
2018-12-22T12:56:14.470Z,2.70
2018-12-22T12:58:41.987Z,2.43
2018-12-22T13:01:09.460Z,3.00
2018-12-22T13:03:36.877Z,2.70
2018-12-22T13:06:04.345Z,2.90
2018-12-22T13:08:31.728Z,2.33
2018-12-22T13:10:59.152Z,2.80
2018-12-22T13:13:30.073Z,3.00
2018-12-22T13:15:57.562Z,2.30
2018-12-22T13:18:26.068Z,2.80
2018-12-22T13:20:53.671Z,2.63
2018-12-22T13:23:21.149Z,2.70
2018-12-22T13:25:54.748Z,2.57
2018-12-22T13:28:22.268Z,3.00
2018-12-22T13:30:49.717Z,3.17
2018-12-22T13:33:17.465Z,3.20
2018-12-22T13:35:45.220Z,3.43
2018-12-22T13:38:12.803Z,2.67
2018-12-22T13:40:40.321Z,2.90
2018-12-22T13:43:07.814Z,2.73
2018-12-22T13:45:35.376Z,3.47
2018-12-22T13:48:03.076Z,2.63
2018-12-22T13:50:30.798Z,3.30
2018-12-22T13:52:58.376Z,2.70
2018-12-22T13:55:25.900Z,3.40
2018-12-22T13:57:53.367Z,2.97
2018-12-22T14:00:21.066Z,3.00
2018-12-22T14:02:48.616Z,2.70
2018-12-22T14:05:18.069Z,3.17
2018-12-22T14:07:45.637Z,2.93
2018-12-22T14:10:13.098Z,2.67
2018-12-22T14:12:40.535Z,3.23
2018-12-22T14:15:09.935Z,2.80
2018-12-22T14:17:55.963Z,3.10
2018-12-22T14:20:24.015Z,3.23
2018-12-22T14:22:51.756Z,3.87
2018-12-22T14:25:23.139Z,3.10
2018-12-22T14:27:50.572Z,2.80
2018-12-22T14:30:18.746Z,3.17
2018-12-22T14:32:46.912Z,3.23
2018-12-22T14:35:18.583Z,3.10
2018-12-22T14:37:46.090Z,3.63
2018-12-22T14:40:13.961Z,3.07
2018-12-22T14:42:41.767Z,2.87
2018-12-22T14:45:10.105Z,3.03
2018-12-22T14:47:37.596Z,3.63
2018-12-22T14:50:05.586Z,3.00
2018-12-22T14:52:33.057Z,3.07
2018-12-22T14:55:01.259Z,3.97
2018-12-22T14:57:30.085Z,3.50
2018-12-22T14:59:57.562Z,3.97
2018-12-22T15:02:26.156Z,2.60
2018-12-22T15:04:53.677Z,3.27
2018-12-22T15:07:21.224Z,4.00
2018-12-22T15:09:49.029Z,3.30
2018-12-22T15:12:17.217Z,3.13
2018-12-22T15:14:44.660Z,3.13
2018-12-22T15:17:12.072Z,2.97
2018-12-22T15:19:42.690Z,3.00
2018-12-22T15:22:10.151Z,3.53
2018-12-22T15:24:37.793Z,3.60
2018-12-22T15:27:05.214Z,3.37
2018-12-22T15:29:32.663Z,3.33
2018-12-22T15:32:00.943Z,3.90
2018-12-22T15:34:28.394Z,2.60
2018-12-22T15:36:55.869Z,2.97
2018-12-22T15:39:23.459Z,2.73
2018-12-22T15:41:59.474Z,3.63
2018-12-22T15:44:26.965Z,3.30
2018-12-22T15:46:54.707Z,3.03
2018-12-22T15:49:23.562Z,4.00
2018-12-22T15:51:50.987Z,3.40
2018-12-22T15:54:18.416Z,2.80
2018-12-22T15:56:45.838Z,3.10
2018-12-22T15:59:13.365Z,3.17
2018-12-22T16:01:40.828Z,2.80
2018-12-22T16:04:11.323Z,3.20
2018-12-22T16:06:39.778Z,2.90
2018-12-22T16:09:07.421Z,3.30
2018-12-22T16:11:34.873Z,3.23
2018-12-22T16:14:03.145Z,2.37
2018-12-22T16:16:30.632Z,2.40
2018-12-22T16:18:58.151Z,3.07
2018-12-22T16:21:25.639Z,3.20
2018-12-22T16:23:53.051Z,2.83
2018-12-22T16:26:20.498Z,3.10
2018-12-22T16:29:07.632Z,3.27
2018-12-22T16:31:35.153Z,3.80
2018-12-22T16:34:02.696Z,3.17
2018-12-22T16:36:30.171Z,3.37
2018-12-22T16:38:57.603Z,2.27
2018-12-22T16:41:25.116Z,2.57
2018-12-22T16:43:52.604Z,2.90
2018-12-22T16:46:20.052Z,2.93
2018-12-22T16:48:47.553Z,3.03
2018-12-22T16:51:15.003Z,2.60
2018-12-22T16:53:42.604Z,3.00
2018-12-22T16:56:10.904Z,2.47
2018-12-22T16:58:39.358Z,2.90
2018-12-22T17:01:10.209Z,3.20
2018-12-22T17:03:37.681Z,2.80
2018-12-22T17:06:10.231Z,2.37
2018-12-22T17:08:37.813Z,3.57
2018-12-22T17:11:05.840Z,2.60
2018-12-22T17:13:33.293Z,2.90
2018-12-22T17:16:01.213Z,2.27
2018-12-22T17:18:29.198Z,3.07
2018-12-22T17:20:59.924Z,2.77
2018-12-22T17:23:29.692Z,3.27
2018-12-22T17:26:00.762Z,2.23
2018-12-22T17:28:28.704Z,2.70
2018-12-22T17:30:56.385Z,2.17
2018-12-22T17:33:23.967Z,3.07
2018-12-22T17:35:58.090Z,2.73
2018-12-22T17:38:26.075Z,2.67
2018-12-22T17:40:54.037Z,3.17
2018-12-22T17:43:21.553Z,2.60
2018-12-22T17:45:53.171Z,2.50
2018-12-22T17:48:21.425Z,2.27
2018-12-22T17:50:48.953Z,3.03
2018-12-22T17:53:16.626Z,2.73
2018-12-22T17:55:44.211Z,2.67
2018-12-22T17:58:11.654Z,3.17
2018-12-22T18:00:39.114Z,3.30
2018-12-22T18:03:07.624Z,3.13
2018-12-22T18:05:35.339Z,3.07
2018-12-22T18:08:03.541Z,3.00
2018-12-22T18:10:35.168Z,2.80
2018-12-22T18:13:02.687Z,3.83
2018-12-22T18:15:30.271Z,2.93
2018-12-22T18:17:57.738Z,3.03
2018-12-22T18:20:25.316Z,2.70
2018-12-22T18:22:52.767Z,3.63
2018-12-22T18:25:20.597Z,3.23
2018-12-22T18:27:48.166Z,3.00
2018-12-22T18:30:15.778Z,3.37
2018-12-22T18:32:43.295Z,2.70
2018-12-22T18:35:11.467Z,3.40
2018-12-22T18:37:45.477Z,4.00
2018-12-22T18:40:14.383Z,3.50
2018-12-22T18:42:41.985Z,2.50
2018-12-22T18:45:10.414Z,2.77
2018-12-22T18:47:37.924Z,3.13
2018-12-22T18:50:06.817Z,2.87
2018-12-22T18:52:34.281Z,2.63
2018-12-22T18:55:02.352Z,3.00
2018-12-22T18:57:29.811Z,2.63
2018-12-22T18:59:57.361Z,2.27
2018-12-22T19:02:24.842Z,2.93
2018-12-22T19:04:52.328Z,2.73
2018-12-22T19:07:20.342Z,3.03
2018-12-22T19:09:48.984Z,2.13
2018-12-22T19:12:17.260Z,2.03
2018-12-22T19:14:50.340Z,2.43
2018-12-22T19:17:17.762Z,2.50
2018-12-22T19:19:45.588Z,2.33
2018-12-22T19:22:13.114Z,2.80
2018-12-22T19:24:40.832Z,2.57
2018-12-22T19:27:08.285Z,2.27
2018-12-22T19:29:37.024Z,2.37
2018-12-22T19:32:04.573Z,2.30
2018-12-22T19:34:32.027Z,2.03
2018-12-22T19:36:59.579Z,2.70
2018-12-22T19:39:27.146Z,2.40
2018-12-22T19:41:54.673Z,2.60
2018-12-22T19:44:22.194Z,2.30
2018-12-22T19:46:49.600Z,2.50
2018-12-22T19:49:17.174Z,2.70
2018-12-22T19:51:44.878Z,2.77
2018-12-22T19:54:12.429Z,2.73
2018-12-22T19:56:40.027Z,2.10
2018-12-22T19:59:07.649Z,2.70
2018-12-22T20:01:35.108Z,2.60
2018-12-22T20:04:02.618Z,2.17
2018-12-22T20:06:30.080Z,2.30
2018-12-22T20:08:57.571Z,2.60
2018-12-22T20:11:25.067Z,2.57
2018-12-22T20:13:52.642Z,2.67
2018-12-22T20:16:20.204Z,2.80
2018-12-22T20:18:47.607Z,2.10
2018-12-22T20:21:15.049Z,2.70
2018-12-22T20:23:42.616Z,3.10
2018-12-22T20:26:10.235Z,2.73
2018-12-22T20:28:38.371Z,2.43
2018-12-22T20:31:05.894Z,3.07
2018-12-22T20:33:33.438Z,2.23
2018-12-22T20:36:01.070Z,2.97
2018-12-22T20:38:28.598Z,2.93
2018-12-22T20:40:56.180Z,2.60
2018-12-22T20:43:23.873Z,2.97
2018-12-22T20:45:51.711Z,2.90
2018-12-22T20:48:19.206Z,2.90
2018-12-22T20:50:46.805Z,3.13
2018-12-22T20:53:14.441Z,3.80
2018-12-22T20:55:41.936Z,2.90
2018-12-22T20:58:09.831Z,3.23
2018-12-22T21:00:45.783Z,2.90
2018-12-22T21:03:13.478Z,2.93
2018-12-22T21:05:52.290Z,3.50
2018-12-22T21:08:19.850Z,2.97
2018-12-22T21:10:47.442Z,2.73
2018-12-22T21:13:14.893Z,2.70
2018-12-22T21:15:47.656Z,3.47
2018-12-22T21:21:36.089Z,2.60
2018-12-22T21:24:04.362Z,3.53
2018-12-22T21:26:32.546Z,2.70
2018-12-22T21:29:00.084Z,3.27
2018-12-22T21:31:27.867Z,2.63
2018-12-22T21:33:55.669Z,2.67
2018-12-22T21:36:39.843Z,3.13
2018-12-22T21:39:28.793Z,3.40
2018-12-22T21:41:56.931Z,3.00
2018-12-22T21:44:25.529Z,2.93
2018-12-22T21:46:54.043Z,2.70
2018-12-22T21:49:21.562Z,2.83
2018-12-22T21:51:49.053Z,3.17
2018-12-22T21:54:17.017Z,2.53
2018-12-22T21:56:45.201Z,2.93
2018-12-22T21:59:16.908Z,2.93
2018-12-22T22:01:44.493Z,3.30
2018-12-22T22:04:16.373Z,3.40
2018-12-22T22:06:49.394Z,2.87
2018-12-22T22:09:19.223Z,3.00
2018-12-22T22:11:46.997Z,2.57
2018-12-22T22:14:15.519Z,2.90
2018-12-22T22:16:43.145Z,2.93
2018-12-22T22:19:11.867Z,3.47
2018-12-22T22:21:39.900Z,2.60
2018-12-22T22:24:08.205Z,2.73
2018-12-22T22:26:35.831Z,2.43
2018-12-22T22:29:04.314Z,3.10
2018-12-22T22:31:36.541Z,3.40
2018-12-22T22:34:04.094Z,3.13
2018-12-22T22:36:32.691Z,3.10
2018-12-22T22:39:06.969Z,3.00
2018-12-22T22:41:36.240Z,2.63
2018-12-22T22:44:04.156Z,3.53
2018-12-22T22:46:31.735Z,2.80
2018-12-22T22:48:59.445Z,2.57
2018-12-22T22:51:27.016Z,3.10
2018-12-22T22:53:54.795Z,3.23
2018-12-22T22:56:22.519Z,2.93
2018-12-22T22:58:50.810Z,2.70
2018-12-22T23:01:18.377Z,2.73
2018-12-22T23:03:45.907Z,2.33
2018-12-22T23:06:13.786Z,3.30
2018-12-22T23:08:41.332Z,3.03
2018-12-22T23:11:08.822Z,2.73
2018-12-22T23:13:36.294Z,2.50
2018-12-22T23:16:03.908Z,2.90
2018-12-22T23:18:32.006Z,2.13
2018-12-22T23:21:00.566Z,3.00
2018-12-22T23:23:31.424Z,2.53
2018-12-22T23:26:00.734Z,2.43
2018-12-22T23:28:30.191Z,2.67
2018-12-22T23:31:00.214Z,3.43
2018-12-22T23:33:27.700Z,2.30
2018-12-22T23:35:55.486Z,2.73
2018-12-22T23:38:24.086Z,2.40
2018-12-22T23:41:15.665Z,2.40
2018-12-22T23:43:43.222Z,3.00
2018-12-22T23:46:10.700Z,2.07
2018-12-22T23:48:38.206Z,2.50
2018-12-22T23:51:05.685Z,2.77
2018-12-22T23:53:33.138Z,2.97
2018-12-22T23:56:00.605Z,3.07
2018-12-22T23:58:28.080Z,2.97
